createdAt,value
2019-05-11T00:00:41.537Z,16.40
2019-05-11T00:01:41.536Z,17.90
2019-05-11T00:02:41.533Z,17.50
2019-05-11T00:03:41.536Z,17.20
2019-05-11T00:04:41.529Z,18.10
2019-05-11T00:05:41.512Z,18.60
2019-05-11T00:06:41.510Z,19.70
2019-05-11T00:07:41.515Z,19.50
2019-05-11T00:08:41.492Z,18.90
2019-05-11T00:09:56.998Z,18.90
2019-05-11T00:10:43.486Z,18.10
2019-05-11T00:11:41.502Z,18.60
2019-05-11T00:12:41.477Z,19.20
2019-05-11T00:13:41.463Z,18.70
2019-05-11T00:14:41.457Z,19.60
2019-05-11T00:15:41.448Z,18.70
2019-05-11T00:16:41.436Z,18.90
2019-05-11T00:17:41.440Z,18.80
2019-05-11T00:18:41.418Z,19.00
2019-05-11T00:19:41.421Z,17.50
2019-05-11T00:20:41.407Z,18.80
2019-05-11T00:21:41.396Z,17.80
2019-05-11T00:22:41.402Z,17.20
2019-05-11T00:23:41.388Z,17.80
2019-05-11T00:24:41.373Z,17.80
2019-05-11T00:25:41.375Z,17.60
2019-05-11T00:26:41.358Z,17.50
2019-05-11T00:27:41.365Z,16.30
2019-05-11T00:28:41.345Z,17.90
2019-05-11T00:29:41.534Z,17.00
2019-05-11T00:30:41.323Z,17.30
2019-05-11T00:31:41.320Z,18.80
2019-05-11T00:32:41.319Z,18.10
2019-05-11T00:33:41.304Z,17.30
2019-05-11T00:34:41.292Z,18.50
2019-05-11T00:35:41.289Z,17.50
2019-05-11T00:36:41.295Z,18.10
2019-05-11T00:37:41.286Z,18.40
2019-05-11T00:38:41.267Z,21.40
2019-05-11T00:39:41.258Z,18.50
2019-05-11T00:40:41.250Z,18.20
2019-05-11T00:41:41.241Z,18.70
2019-05-11T00:42:41.246Z,18.90
2019-05-11T00:43:41.226Z,20.10
2019-05-11T00:44:41.232Z,18.80
2019-05-11T00:45:41.216Z,18.80
2019-05-11T00:46:41.215Z,18.40
2019-05-11T00:47:41.217Z,18.80
2019-05-11T00:48:42.195Z,18.70
2019-05-11T00:49:41.190Z,18.60
2019-05-11T00:50:41.275Z,17.70
2019-05-11T00:51:41.176Z,17.80
2019-05-11T00:52:41.171Z,18.10
2019-05-11T00:53:41.160Z,18.20
2019-05-11T00:54:41.155Z,17.80
2019-05-11T00:55:41.144Z,17.90
2019-05-11T00:56:41.143Z,17.30
2019-05-11T00:57:41.158Z,17.20
2019-05-11T00:58:41.131Z,18.80
2019-05-11T00:59:41.113Z,18.20
2019-05-11T01:00:41.119Z,19.10
2019-05-11T01:01:41.102Z,18.20
2019-05-11T01:02:41.115Z,17.80
2019-05-11T01:03:41.099Z,18.60
2019-05-11T01:04:41.110Z,20.20
2019-05-11T01:05:41.090Z,18.70
2019-05-11T01:06:41.092Z,17.90
2019-05-11T01:07:41.084Z,18.80
2019-05-11T01:08:41.093Z,17.60
2019-05-11T01:09:41.070Z,19.30
2019-05-11T01:10:42.662Z,21.20
2019-05-11T01:11:42.051Z,18.70
2019-05-11T01:12:41.053Z,19.40
2019-05-11T01:13:41.053Z,20.10
2019-05-11T01:14:41.027Z,18.90
2019-05-11T01:15:41.011Z,19.70
2019-05-11T01:16:42.028Z,19.40
2019-05-11T01:17:41.027Z,19.20
2019-05-11T01:18:41.028Z,19.30
2019-05-11T01:19:41.083Z,19.70
2019-05-11T01:20:41.015Z,20.30
2019-05-11T01:21:41.002Z,19.10
2019-05-11T01:22:40.995Z,19.00
2019-05-11T01:23:40.993Z,20.10
2019-05-11T01:24:40.980Z,21.30
2019-05-11T01:25:40.970Z,20.70
2019-05-11T01:26:40.973Z,22.80
2019-05-11T01:27:40.970Z,21.40
2019-05-11T01:28:40.975Z,21.80
2019-05-11T01:29:40.950Z,22.60
2019-05-11T01:30:40.956Z,23.90
2019-05-11T01:31:40.937Z,23.10
2019-05-11T01:32:40.928Z,22.60
2019-05-11T01:33:40.945Z,23.10
2019-05-11T01:34:47.603Z,22.70
2019-05-11T01:35:40.916Z,22.30
2019-05-11T01:36:40.911Z,25.80
2019-05-11T01:37:40.900Z,23.70
2019-05-11T01:38:40.897Z,24.80
2019-05-11T01:39:40.876Z,24.80
2019-05-11T01:40:40.871Z,25.70
2019-05-11T01:41:40.877Z,24.90
2019-05-11T01:42:40.855Z,23.10
2019-05-11T01:43:40.853Z,23.50
2019-05-11T01:44:40.854Z,25.50
2019-05-11T01:45:40.841Z,23.80
2019-05-11T01:46:40.835Z,23.40
2019-05-11T01:47:40.831Z,24.00
2019-05-11T01:48:40.821Z,24.30
2019-05-11T01:49:40.821Z,27.00
2019-05-11T01:50:40.800Z,27.40
2019-05-11T01:51:40.802Z,27.20
2019-05-11T01:52:40.799Z,28.70
2019-05-11T01:53:40.784Z,27.20
2019-05-11T01:54:40.789Z,26.70
2019-05-11T01:55:40.768Z,28.80
2019-05-11T01:56:40.756Z,29.20
2019-05-11T01:57:40.755Z,32.10
2019-05-11T01:58:40.748Z,33.40
2019-05-11T01:59:40.740Z,38.80
2019-05-11T02:00:40.727Z,40.10
2019-05-11T02:01:40.721Z,38.70
2019-05-11T02:02:40.724Z,33.60
2019-05-11T02:03:40.709Z,33.20
2019-05-11T02:04:40.713Z,37.30
2019-05-11T02:05:40.698Z,36.40
2019-05-11T02:06:40.686Z,34.80
2019-05-11T02:07:40.686Z,40.00
2019-05-11T02:08:40.678Z,39.40
2019-05-11T02:09:40.676Z,33.00
2019-05-11T02:10:40.661Z,34.90
2019-05-11T02:11:40.668Z,34.70
2019-05-11T02:12:40.656Z,31.60
2019-05-11T02:13:40.648Z,34.70
2019-05-11T02:14:40.649Z,34.90
2019-05-11T02:15:40.632Z,39.30
2019-05-11T02:16:41.590Z,45.30
2019-05-11T02:17:40.632Z,43.90
2019-05-11T02:18:40.620Z,44.60
2019-05-11T02:19:40.629Z,42.00
2019-05-11T02:20:40.614Z,41.30
2019-05-11T02:21:40.607Z,37.80
2019-05-11T02:22:40.593Z,44.70
2019-05-11T02:23:40.585Z,45.80
2019-05-11T02:24:40.613Z,49.60
2019-05-11T02:25:40.587Z,59.50
2019-05-11T02:26:40.576Z,45.40
2019-05-11T02:27:40.569Z,59.50
2019-05-11T02:28:40.564Z,54.10
2019-05-11T02:29:41.564Z,58.70
2019-05-11T02:30:41.564Z,55.00
2019-05-11T02:31:40.540Z,50.20
2019-05-11T02:32:40.557Z,49.80
2019-05-11T02:33:40.556Z,51.70
2019-05-11T02:34:40.543Z,51.90
2019-05-11T02:35:40.555Z,52.00
2019-05-11T02:36:40.525Z,52.20
2019-05-11T02:37:40.575Z,49.20
2019-05-11T02:38:40.501Z,53.00
2019-05-11T02:39:40.522Z,49.50
2019-05-11T02:40:40.513Z,50.40
2019-05-11T02:41:40.499Z,42.40
2019-05-11T02:42:40.498Z,46.00
2019-05-11T02:43:40.498Z,50.40
2019-05-11T02:44:40.480Z,56.10
2019-05-11T02:45:40.495Z,64.90
2019-05-11T02:46:40.471Z,58.60
2019-05-11T02:47:40.470Z,50.00
2019-05-11T02:48:40.456Z,56.10
2019-05-11T02:49:40.451Z,53.60
2019-05-11T02:50:40.458Z,65.50
2019-05-11T02:51:40.432Z,80.20
2019-05-11T02:52:40.456Z,49.80
2019-05-11T02:53:40.420Z,68.00
2019-05-11T02:54:40.415Z,61.60
2019-05-11T02:55:40.434Z,59.80
2019-05-11T02:56:40.397Z,68.90
2019-05-11T02:57:40.386Z,50.30
2019-05-11T02:58:40.380Z,59.30
2019-05-11T02:59:40.400Z,57.40
2019-05-11T03:00:40.430Z,42.80
2019-05-11T03:01:40.373Z,47.00
2019-05-11T03:02:40.354Z,36.90
2019-05-11T03:03:40.336Z,43.90
2019-05-11T03:04:40.332Z,42.90
2019-05-11T03:05:40.328Z,49.60
2019-05-11T03:06:40.328Z,61.60
2019-05-11T03:07:40.306Z,55.30
2019-05-11T03:08:40.311Z,98.90
2019-05-11T03:09:40.292Z,96.70
2019-05-11T03:10:40.308Z,102.60
2019-05-11T03:11:55.006Z,119.90
2019-05-11T03:12:42.333Z,91.50
2019-05-11T03:13:40.296Z,83.30
2019-05-11T03:14:40.298Z,88.80
2019-05-11T03:15:40.293Z,94.30
2019-05-11T03:16:40.292Z,75.00
2019-05-11T03:17:40.359Z,71.70
2019-05-11T03:18:40.293Z,83.50
2019-05-11T03:19:40.303Z,81.70
2019-05-11T03:20:40.284Z,81.40
2019-05-11T03:21:40.308Z,99.00
2019-05-11T03:22:40.273Z,89.80
2019-05-11T03:23:40.264Z,76.00
2019-05-11T03:24:40.264Z,107.20
2019-05-11T03:25:40.259Z,123.50
2019-05-11T03:26:40.249Z,151.60
2019-05-11T03:27:40.267Z,106.00
2019-05-11T03:28:40.247Z,104.10
2019-05-11T03:29:40.217Z,145.50
2019-05-11T03:30:40.213Z,103.30
2019-05-11T03:31:40.232Z,84.90
2019-05-11T03:32:40.200Z,97.60
2019-05-11T03:33:40.198Z,98.10
2019-05-11T03:34:40.201Z,146.50
2019-05-11T03:35:40.231Z,90.10
2019-05-11T03:36:40.183Z,124.30
2019-05-11T03:37:40.163Z,156.10
2019-05-11T03:38:40.157Z,91.60
2019-05-11T03:39:40.153Z,127.90
2019-05-11T03:40:40.134Z,174.70
2019-05-11T03:41:40.139Z,95.20
2019-05-11T03:42:40.131Z,114.60
2019-05-11T03:43:40.170Z,181.80
2019-05-11T03:44:41.028Z,108.80
2019-05-11T03:45:40.098Z,169.10
2019-05-11T03:46:40.104Z,179.40
2019-05-11T03:47:40.093Z,137.10
2019-05-11T03:48:40.091Z,180.10
2019-05-11T03:49:40.070Z,134.80
2019-05-11T03:50:40.061Z,137.10
2019-05-11T03:51:40.065Z,162.60
2019-05-11T03:52:40.050Z,116.20
2019-05-11T03:53:40.045Z,111.10
2019-05-11T03:54:40.596Z,95.80
2019-05-11T03:55:40.029Z,103.90
2019-05-11T03:56:40.052Z,102.00
2019-05-11T03:57:40.017Z,108.00
2019-05-11T03:58:40.001Z,93.70
2019-05-11T03:59:40.003Z,89.10
2019-05-11T04:00:39.999Z,106.40
2019-05-11T04:01:39.991Z,74.90
2019-05-11T04:02:39.990Z,88.20
2019-05-11T04:03:39.966Z,128.00
2019-05-11T04:04:40.003Z,95.10
2019-05-11T04:05:39.959Z,103.70
2019-05-11T04:06:39.977Z,87.70
2019-05-11T04:07:39.965Z,84.10
2019-05-11T04:08:40.602Z,104.20
2019-05-11T04:09:39.925Z,122.10
2019-05-11T04:10:39.923Z,158.30
2019-05-11T04:11:39.918Z,156.50
2019-05-11T04:12:39.912Z,105.30
2019-05-11T04:13:39.897Z,81.70
2019-05-11T04:14:39.889Z,100.10
2019-05-11T04:15:39.888Z,112.40
2019-05-11T04:16:39.872Z,126.70
2019-05-11T04:17:39.877Z,123.20
2019-05-11T04:18:39.858Z,164.10
2019-05-11T04:19:39.855Z,188.50
2019-05-11T04:20:39.844Z,122.90
2019-05-11T04:21:39.836Z,95.60
2019-05-11T04:22:39.843Z,93.90
2019-05-11T04:23:39.818Z,97.50
2019-05-11T04:24:39.828Z,95.90
2019-05-11T04:25:39.819Z,104.50
2019-05-11T04:26:39.801Z,144.90
2019-05-11T04:27:39.829Z,112.70
2019-05-11T04:28:39.808Z,159.00
2019-05-11T04:29:40.796Z,122.60
2019-05-11T04:30:39.804Z,143.20
2019-05-11T04:31:39.808Z,89.50
2019-05-11T04:32:39.801Z,101.80
2019-05-11T04:33:39.791Z,109.40
2019-05-11T04:34:39.780Z,127.40
2019-05-11T04:35:39.789Z,121.10
2019-05-11T04:36:39.780Z,174.40
2019-05-11T04:37:39.767Z,167.30
2019-05-11T04:38:39.756Z,166.90
2019-05-11T04:39:39.751Z,150.40
2019-05-11T04:40:39.753Z,209.50
2019-05-11T04:41:39.844Z,111.20
2019-05-11T04:42:54.383Z,182.40
2019-05-11T04:43:41.723Z,109.80
2019-05-11T04:44:39.714Z,110.50
2019-05-11T04:45:39.712Z,198.70
2019-05-11T04:46:39.703Z,89.10
2019-05-11T04:47:39.701Z,117.20
2019-05-11T04:48:39.696Z,258.40
2019-05-11T04:49:40.693Z,142.20
2019-05-11T04:50:39.704Z,180.70
2019-05-11T04:51:39.702Z,174.30
2019-05-11T04:52:39.687Z,177.20
2019-05-11T04:53:39.687Z,130.10
2019-05-11T04:54:39.682Z,167.80
2019-05-11T04:55:39.677Z,144.40
2019-05-11T04:56:39.671Z,174.60
2019-05-11T04:57:39.655Z,185.10
2019-05-11T04:58:39.649Z,186.70
2019-05-11T04:59:39.639Z,175.80
2019-05-11T05:00:39.633Z,168.00
2019-05-11T05:01:39.634Z,177.70
2019-05-11T05:02:39.610Z,231.20
2019-05-11T05:03:41.140Z,207.80
2019-05-11T05:04:40.602Z,210.90
2019-05-11T05:05:39.596Z,228.80
2019-05-11T05:06:39.588Z,266.90
2019-05-11T05:07:47.661Z,280.90
2019-05-11T05:08:41.568Z,243.50
2019-05-11T05:09:42.513Z,325.10
2019-05-11T05:10:41.549Z,263.60
2019-05-11T05:11:39.556Z,260.60
2019-05-11T05:12:39.561Z,269.10
2019-05-11T05:13:39.547Z,295.50
2019-05-11T05:14:39.550Z,207.70
2019-05-11T05:15:39.536Z,301.50
2019-05-11T05:16:39.540Z,205.40
2019-05-11T05:17:39.524Z,259.70
2019-05-11T05:18:39.514Z,209.20
2019-05-11T05:19:39.508Z,164.10
2019-05-11T05:20:39.499Z,175.40
2019-05-11T05:21:39.577Z,188.60
2019-05-11T05:22:39.500Z,159.70
2019-05-11T05:23:39.476Z,146.30
2019-05-11T05:24:39.481Z,140.30
2019-05-11T05:25:39.459Z,244.30
2019-05-11T05:26:39.457Z,112.10
2019-05-11T05:27:39.446Z,164.70
2019-05-11T05:28:39.439Z,136.00
2019-05-11T05:29:39.457Z,125.70
2019-05-11T05:30:39.424Z,103.00
2019-05-11T05:31:39.432Z,117.10
2019-05-11T05:32:39.425Z,122.10
2019-05-11T05:33:39.409Z,139.30
2019-05-11T05:34:39.409Z,108.00
2019-05-11T05:35:39.397Z,161.60
2019-05-11T05:36:39.393Z,134.00
2019-05-11T05:37:39.384Z,142.40
2019-05-11T05:38:39.370Z,115.50
2019-05-11T05:39:39.363Z,186.50
2019-05-11T05:40:39.354Z,109.60
2019-05-11T05:41:39.390Z,85.60
2019-05-11T05:42:39.337Z,188.70
2019-05-11T05:43:39.324Z,151.80
2019-05-11T05:44:39.345Z,132.50
2019-05-11T05:45:39.336Z,148.90
2019-05-11T05:46:39.354Z,192.20
2019-05-11T05:47:39.354Z,147.50
2019-05-11T05:48:39.323Z,187.30
2019-05-11T05:49:39.334Z,163.70
2019-05-11T05:50:39.317Z,151.50
2019-05-11T05:51:39.314Z,158.70
2019-05-11T05:52:39.331Z,153.10
2019-05-11T05:53:39.321Z,135.60
2019-05-11T05:54:39.319Z,176.20
2019-05-11T05:55:39.302Z,192.30
2019-05-11T05:56:39.295Z,196.70
2019-05-11T05:57:39.304Z,207.30
2019-05-11T05:58:39.295Z,199.60
2019-05-11T05:59:39.276Z,260.40
2019-05-11T06:00:39.270Z,246.30
2019-05-11T06:01:39.278Z,238.20
2019-05-11T06:02:39.334Z,212.60
2019-05-11T06:03:39.284Z,252.00
2019-05-11T06:04:39.272Z,213.00
2019-05-11T06:05:39.280Z,140.00
2019-05-11T06:06:39.295Z,217.30
2019-05-11T06:07:39.281Z,263.70
2019-05-11T06:08:43.000Z,163.10
2019-05-11T06:09:39.258Z,213.40
2019-05-11T06:10:39.251Z,175.40
2019-05-11T06:11:39.239Z,162.70
2019-05-11T06:12:39.242Z,238.50
2019-05-11T06:13:45.062Z,171.20
2019-05-11T06:14:41.214Z,149.70
2019-05-11T06:15:39.215Z,169.80
2019-05-11T06:16:39.203Z,216.90
2019-05-11T06:17:39.207Z,201.20
2019-05-11T06:18:39.194Z,169.60
2019-05-11T06:19:39.186Z,164.70
2019-05-11T06:20:39.172Z,153.00
2019-05-11T06:21:39.183Z,138.80
2019-05-11T06:22:39.176Z,215.30
2019-05-11T06:23:39.152Z,245.80
2019-05-11T06:24:39.182Z,103.40
2019-05-11T06:25:39.166Z,244.70
2019-05-11T06:26:39.158Z,236.30
2019-05-11T06:27:39.156Z,151.40
2019-05-11T06:28:39.141Z,110.20
2019-05-11T06:29:39.152Z,117.10
2019-05-11T06:30:39.131Z,96.70
2019-05-11T06:31:39.119Z,196.80
2019-05-11T06:32:39.124Z,172.80
2019-05-11T06:33:39.110Z,134.80
2019-05-11T06:34:39.092Z,115.80
2019-05-11T06:35:39.087Z,164.30
2019-05-11T06:36:39.074Z,111.70
2019-05-11T06:37:39.117Z,139.60
2019-05-11T06:38:39.097Z,191.70
2019-05-11T06:39:39.083Z,174.70
2019-05-11T06:40:39.073Z,102.00
2019-05-11T06:41:39.070Z,152.60
2019-05-11T06:42:39.081Z,83.80
2019-05-11T06:43:39.080Z,68.30
2019-05-11T06:44:39.069Z,137.50
2019-05-11T06:45:39.056Z,95.90
2019-05-11T06:46:39.054Z,117.40
2019-05-11T06:47:39.043Z,75.00
2019-05-11T06:48:39.048Z,110.40
2019-05-11T06:49:39.038Z,109.30
2019-05-11T06:50:39.028Z,110.40
2019-05-11T06:51:40.554Z,96.90
2019-05-11T06:52:40.008Z,104.90
2019-05-11T06:53:39.030Z,80.20
2019-05-11T06:54:38.991Z,82.90
2019-05-11T06:55:38.969Z,120.00
2019-05-11T06:56:39.979Z,67.40
2019-05-11T06:57:38.991Z,156.90
2019-05-11T06:58:38.997Z,132.60
2019-05-11T06:59:38.993Z,136.00
2019-05-11T07:00:38.976Z,108.80
2019-05-11T07:01:38.963Z,139.70
2019-05-11T07:02:38.965Z,177.30
2019-05-11T07:03:38.963Z,78.00
2019-05-11T07:04:38.949Z,117.30
2019-05-11T07:05:38.934Z,77.50
2019-05-11T07:06:38.926Z,79.40
2019-05-11T07:07:47.440Z,57.40
2019-05-11T07:08:40.948Z,91.70
2019-05-11T07:09:38.930Z,81.20
2019-05-11T07:10:38.931Z,81.00
2019-05-11T07:11:38.910Z,127.70
2019-05-11T07:12:38.902Z,125.60
2019-05-11T07:13:38.910Z,85.00
2019-05-11T07:14:38.889Z,58.10
2019-05-11T07:15:38.885Z,107.10
2019-05-11T07:16:38.880Z,79.40
2019-05-11T07:17:38.872Z,130.00
2019-05-11T07:18:38.875Z,67.80
2019-05-11T07:19:38.851Z,87.30
2019-05-11T07:20:50.049Z,57.80
2019-05-11T07:21:40.841Z,103.10
2019-05-11T07:22:38.832Z,66.50
2019-05-11T07:23:38.854Z,82.20
2019-05-11T07:24:38.811Z,53.00
2019-05-11T07:25:38.811Z,65.50
2019-05-11T07:26:38.799Z,50.60
2019-05-11T07:27:38.808Z,65.90
2019-05-11T07:28:38.802Z,61.30
2019-05-11T07:29:38.806Z,60.10
2019-05-11T07:30:38.791Z,74.20
2019-05-11T07:31:38.789Z,64.00
2019-05-11T07:32:38.783Z,75.60
2019-05-11T07:33:38.770Z,70.80
2019-05-11T07:34:48.743Z,63.20
2019-05-11T07:35:38.754Z,75.20
2019-05-11T07:36:38.957Z,72.70
2019-05-11T07:37:39.754Z,65.10
2019-05-11T07:38:38.734Z,54.00
2019-05-11T07:39:38.745Z,50.50
2019-05-11T07:40:38.720Z,59.20
2019-05-11T07:41:38.920Z,51.30
2019-05-11T07:42:38.709Z,59.60
2019-05-11T07:43:38.702Z,78.30
2019-05-11T07:44:41.707Z,54.70
2019-05-11T07:45:39.686Z,53.00
2019-05-11T07:46:38.684Z,73.70
2019-05-11T07:47:38.685Z,53.50
2019-05-11T07:48:38.883Z,59.20
2019-05-11T07:49:39.673Z,61.70
2019-05-11T07:50:38.904Z,58.40
2019-05-11T07:51:39.643Z,61.80
2019-05-11T07:52:38.648Z,75.70
2019-05-11T07:53:38.634Z,74.00
2019-05-11T07:54:38.699Z,73.70
2019-05-11T07:55:38.706Z,94.60
2019-05-11T07:56:39.153Z,130.00
2019-05-11T07:57:39.605Z,61.30
2019-05-11T07:58:38.889Z,65.20
2019-05-11T07:59:39.589Z,52.50
2019-05-11T08:00:40.048Z,56.10
2019-05-11T08:01:39.580Z,66.50
2019-05-11T08:02:38.942Z,65.70
2019-05-11T08:03:39.551Z,51.70
2019-05-11T08:04:38.561Z,60.90
2019-05-11T08:05:38.707Z,56.20
2019-05-11T08:06:39.543Z,56.80
2019-05-11T08:07:38.521Z,53.50
2019-05-11T08:08:38.691Z,66.00
2019-05-11T08:09:38.533Z,67.60
2019-05-11T08:10:39.165Z,61.20
2019-05-11T08:11:39.522Z,98.00
2019-05-11T08:12:39.411Z,69.10
2019-05-11T08:13:39.482Z,59.30
2019-05-11T08:14:55.957Z,67.00
2019-05-11T08:15:40.469Z,51.40
2019-05-11T08:16:39.353Z,44.40
2019-05-11T08:17:38.457Z,82.50
2019-05-11T08:18:38.852Z,50.00
2019-05-11T08:19:39.433Z,63.80
2019-05-11T08:20:39.429Z,52.10
2019-05-11T08:21:38.955Z,48.00
2019-05-11T08:22:39.429Z,37.80
2019-05-11T08:23:38.407Z,34.70
2019-05-11T08:24:38.413Z,51.00
2019-05-11T08:25:38.405Z,67.40
2019-05-11T08:26:38.706Z,58.90
2019-05-11T08:27:39.379Z,72.10
2019-05-11T08:28:38.393Z,58.60
2019-05-11T08:29:38.570Z,48.40
2019-05-11T08:30:39.383Z,49.60
2019-05-11T08:31:38.644Z,32.80
2019-05-11T08:32:39.367Z,47.20
2019-05-11T08:33:38.998Z,48.00
2019-05-11T08:34:39.832Z,46.40
2019-05-11T08:35:39.339Z,50.30
2019-05-11T08:36:38.333Z,39.30
2019-05-11T08:37:38.925Z,39.80
2019-05-11T08:38:39.321Z,51.40
2019-05-11T08:39:38.310Z,56.40
2019-05-11T08:40:38.315Z,53.20
2019-05-11T08:41:38.653Z,40.40
2019-05-11T08:42:39.285Z,42.00
2019-05-11T08:43:38.835Z,48.70
2019-05-11T08:44:39.276Z,46.80
2019-05-11T08:45:39.247Z,42.20
2019-05-11T08:46:39.266Z,45.90
2019-05-11T08:47:38.255Z,38.40
2019-05-11T08:48:38.930Z,40.00
2019-05-11T08:49:39.239Z,53.00
2019-05-11T08:50:38.421Z,36.60
2019-05-11T08:51:38.729Z,36.30
2019-05-11T08:52:39.236Z,39.50
2019-05-11T08:53:38.858Z,41.10
2019-05-11T08:54:39.223Z,29.50
2019-05-11T08:55:38.429Z,49.90
2019-05-11T08:56:38.495Z,39.40
2019-05-11T08:57:39.202Z,35.10
2019-05-11T08:58:38.237Z,41.80
2019-05-11T08:59:38.277Z,30.40
2019-05-11T09:00:39.221Z,38.90
2019-05-11T09:01:39.311Z,34.90
2019-05-11T09:02:39.165Z,34.10
2019-05-11T09:03:38.824Z,30.90
2019-05-11T09:04:41.928Z,28.20
2019-05-11T09:05:39.150Z,34.40
2019-05-11T09:06:38.137Z,35.90
2019-05-11T09:07:38.524Z,41.90
2019-05-11T09:08:39.125Z,40.20
2019-05-11T09:09:38.232Z,40.30
2019-05-11T09:10:39.792Z,50.60
2019-05-11T09:11:39.119Z,40.00
2019-05-11T09:12:38.376Z,52.10
2019-05-11T09:13:39.469Z,40.90
2019-05-11T09:14:39.109Z,62.00
2019-05-11T09:15:40.605Z,53.50
2019-05-11T09:16:39.110Z,61.90
2019-05-11T09:17:38.347Z,51.10
2019-05-11T09:18:39.104Z,53.70
2019-05-11T09:19:38.786Z,67.30
2019-05-11T09:20:39.107Z,64.30
2019-05-11T09:21:38.495Z,51.50
2019-05-11T09:22:39.093Z,61.60
2019-05-11T09:23:40.696Z,68.50
2019-05-11T09:24:39.096Z,68.30
2019-05-11T09:25:38.564Z,44.70
2019-05-11T09:26:39.177Z,50.90
2019-05-11T09:27:38.107Z,63.60
2019-05-11T09:28:38.508Z,69.70
2019-05-11T09:29:39.098Z,67.30
2019-05-11T09:30:38.118Z,49.90
2019-05-11T09:31:38.358Z,59.30
2019-05-11T09:32:39.107Z,55.20
2019-05-11T09:33:38.561Z,82.60
2019-05-11T09:34:39.090Z,60.70
2019-05-11T09:35:48.533Z,60.40
2019-05-11T09:36:40.137Z,73.60
2019-05-11T09:37:38.328Z,77.70
2019-05-11T09:38:38.459Z,58.20
2019-05-11T09:39:39.054Z,74.50
2019-05-11T09:40:38.708Z,71.70
2019-05-11T09:41:39.050Z,67.80
2019-05-11T09:42:38.883Z,57.20
2019-05-11T09:43:39.701Z,48.90
2019-05-11T09:44:38.647Z,84.60
2019-05-11T09:45:48.185Z,48.00
2019-05-11T09:46:40.023Z,51.00
2019-05-11T09:47:38.686Z,41.80
2019-05-11T09:48:38.987Z,38.30
2019-05-11T09:49:47.142Z,40.30
2019-05-11T09:50:39.976Z,40.10
2019-05-11T09:51:38.193Z,39.10
2019-05-11T09:52:38.970Z,39.90
2019-05-11T09:53:38.876Z,38.10
2019-05-11T09:54:38.943Z,41.90
2019-05-11T09:55:38.892Z,47.40
2019-05-11T09:56:38.933Z,35.80
2019-05-11T09:57:38.295Z,40.40
2019-05-11T09:58:38.930Z,36.70
2019-05-11T09:59:38.607Z,42.00
2019-05-11T10:00:39.036Z,38.10
2019-05-11T10:01:38.067Z,38.80
2019-05-11T10:02:38.699Z,50.40
2019-05-11T10:03:38.924Z,40.00
2019-05-11T10:04:38.212Z,44.30
2019-05-11T10:05:39.665Z,38.90
2019-05-11T10:06:38.792Z,37.00
2019-05-11T10:07:38.834Z,31.40
2019-05-11T10:08:38.204Z,27.80
2019-05-11T10:09:38.849Z,32.60
2019-05-11T10:10:38.473Z,23.10
2019-05-11T10:11:39.946Z,20.80
2019-05-11T10:12:38.807Z,25.60
2019-05-11T10:13:38.442Z,25.40
2019-05-11T10:14:38.789Z,16.20
2019-05-11T10:15:38.523Z,22.40
2019-05-11T10:16:38.874Z,28.00
2019-05-11T10:17:38.401Z,22.30
2019-05-11T10:18:38.790Z,17.50
2019-05-11T10:19:39.605Z,15.10
2019-05-11T10:20:39.176Z,18.80
2019-05-11T10:21:38.774Z,14.70
2019-05-11T10:22:38.473Z,14.90
2019-05-11T10:23:42.163Z,13.30
2019-05-11T10:24:38.481Z,11.70
2019-05-11T10:25:40.435Z,12.10
2019-05-11T10:26:38.667Z,12.60
2019-05-11T10:27:40.072Z,11.70
2019-05-11T10:28:38.906Z,12.00
2019-05-11T10:29:38.815Z,14.10
2019-05-11T10:30:38.567Z,16.20
2019-05-11T10:31:38.828Z,14.40
2019-05-11T10:32:38.070Z,14.80
2019-05-11T10:33:40.796Z,14.80
2019-05-11T10:34:40.373Z,13.10
2019-05-11T10:35:39.640Z,15.30
2019-05-11T10:36:39.222Z,16.30
2019-05-11T10:37:39.168Z,17.00
2019-05-11T10:38:42.687Z,15.60
2019-05-11T10:39:38.992Z,17.00
2019-05-11T10:40:39.942Z,16.60
2019-05-11T10:41:40.297Z,19.00
2019-05-11T10:42:38.446Z,18.50
2019-05-11T10:43:40.583Z,22.70
